Time;durP1;ratioP1;P1;durP2;ratioP2;P2;SDS_P1;SDS_P2;PMS_P1;PMS_P2;Temp;Humidity;BMP_temperature;BMP_pressure;BME280_temperature;BME280_humidity;BME280_pressure;Samples;Min_cycle;Max_cycle;Signal;HPM_P1;HPM_P2
2021/12/16 00:02:59;;;;;;;43.20;23.53;;;;;;;6.05;95.65;102295.03;5073205;28;20226;-77
2021/12/16 00:05:44;;;;;;;37.40;22.43;;;;;;;6.05;96.81;102267.41;5072789;28;20208;-77
2021/12/16 00:08:17;;;;;;;40.50;22.53;;;;;;;6.12;96.93;102252.88;5073260;28;20642;-77
2021/12/16 00:10:52;;;;;;;27.27;21.23;;;;;;;6.10;96.30;102251.97;5073616;28;20237;-77
2021/12/16 00:30:08;;;;;;;27.53;17.97;;;;;;;6.16;95.28;102272.88;5053074;28;20187;-76
2021/12/16 00:32:45;;;;;;;26.37;19.17;;;;;;;6.13;93.39;102320.34;5052598;28;20231;-76
2021/12/16 00:35:13;;;;;;;25.07;17.40;;;;;;;6.17;93.34;102352.44;5052963;28;20243;-77
2021/12/16 00:37:39;;;;;;;37.67;22.37;;;;;;;6.12;94.47;102339.31;5052544;28;20228;-77
2021/12/16 00:40:09;;;;;;;24.77;20.17;;;;;;;6.12;93.93;102335.84;5053002;28;20216;-77
2021/12/16 00:42:43;;;;;;;22.07;17.93;;;;;;;6.06;92.37;102367.66;5067399;28;20352;-77
2021/12/16 00:48:07;;;;;;;31.37;21.33;;;;;;;6.04;93.05;102389.19;5056384;28;20888;-77
2021/12/16 00:56:07;;;;;;;24.73;19.07;;;;;;;5.87;94.05;102337.69;5072292;28;20227;-77
2021/12/16 00:58:40;;;;;;;25.27;18.90;;;;;;;5.89;93.87;102335.13;5072287;28;20250;-76
2021/12/16 01:01:18;;;;;;;41.70;23.20;;;;;;;5.84;94.77;102328.91;5064775;28;20206;-77
2021/12/16 01:03:52;;;;;;;33.20;21.17;;;;;;;5.79;93.77;102321.00;5072139;28;20220;-77
2021/12/16 01:06:48;;;;;;;32.17;20.93;;;;;;;5.77;93.60;102338.22;5072470;28;20196;-76
2021/12/16 01:09:48;;;;;;;23.70;18.33;;;;;;;5.67;92.93;102364.66;5072392;28;20192;-77
2021/12/16 01:34:45;;;;;;;30.13;20.97;;;;;;;5.64;93.89;102325.69;5071549;28;20286;-77
2021/12/16 01:37:42;;;;;;;22.57;17.23;;;;;;;5.67;93.32;102347.41;5072048;28;20263;-77
2021/12/16 01:40:20;;;;;;;23.10;17.47;;;;;;;5.65;92.52;102387.03;5071523;28;20212;-77
2021/12/16 01:45:53;;;;;;;31.80;20.27;;;;;;;5.55;92.48;102384.16;5070505;28;20225;-77
2021/12/16 01:49:07;;;;;;;26.50;18.67;;;;;;;5.54;91.79;102390.16;5066170;28;20284;-77
2021/12/16 01:51:52;;;;;;;37.00;22.63;;;;;;;5.55;93.24;102371.22;5071489;28;20231;-76
2021/12/16 01:54:44;;;;;;;29.50;20.77;;;;;;;5.54;93.09;102366.84;5071475;28;20680;-77
2021/12/16 01:57:17;;;;;;;32.30;20.73;;;;;;;5.53;94.26;102330.53;5071265;28;20272;-77
2021/12/16 01:59:47;;;;;;;23.70;18.43;;;;;;;5.45;93.39;102361.38;5071437;28;20281;-76
2021/12/16 02:02:31;;;;;;;20.60;17.53;;;;;;;5.47;92.42;102383.03;5071401;28;20237;-77
2021/12/16 02:05:16;;;;;;;25.57;19.07;;;;;;;5.42;92.54;102397.53;5071670;28;20195;-77
2021/12/16 02:08:10;;;;;;;26.83;17.87;;;;;;;5.46;92.20;102403.69;5071336;28;20187;-77
2021/12/16 02:10:42;;;;;;;35.70;21.00;;;;;;;5.44;92.55;102418.31;5071499;28;20238;-76
2021/12/16 02:13:30;;;;;;;33.80;21.07;;;;;;;5.44;95.14;102323.34;5070635;28;20418;-77
2021/12/16 02:29:56;;;;;;;36.10;21.23;;;;;;;5.51;95.15;102290.75;5054992;28;20239;-77
2021/12/16 02:32:38;;;;;;;32.10;20.90;;;;;;;5.49;94.58;102314.03;5054596;28;20240;-77
2021/12/16 02:35:25;;;;;;;36.43;23.97;;;;;;;5.47;94.46;102328.63;5055040;28;20296;-77
2021/12/16 02:37:53;;;;;;;33.00;20.90;;;;;;;5.51;94.75;102324.41;5054932;28;20724;-77
2021/12/16 02:40:20;;;;;;;38.23;22.70;;;;;;;5.53;95.03;102326.25;5055079;28;20227;-77
2021/12/16 02:42:56;;;;;;;33.37;20.80;;;;;;;5.53;95.03;102336.59;5071071;28;20295;-77
2021/12/16 02:50:52;;;;;;;35.87;22.80;;;;;;;5.57;94.79;102309.09;5074854;28;20210;-77
2021/12/16 02:53:20;;;;;;;42.67;24.07;;;;;;;5.60;95.21;102305.72;5074153;28;20585;-77
2021/12/16 02:55:47;;;;;;;37.83;22.70;;;;;;;5.64;95.60;102298.06;5074637;28;20295;-77
2021/12/16 02:58:13;;;;;;;36.93;22.33;;;;;;;5.68;94.79;102307.69;5074483;28;20232;-77
2021/12/16 03:00:46;;;;;;;34.83;23.00;;;;;;;5.65;94.91;102307.63;5074637;28;20202;-77
2021/12/16 03:03:13;;;;;;;40.67;24.00;;;;;;;5.69;95.24;102306.88;5074186;28;20235;-77
2021/12/16 03:05:40;;;;;;;36.13;24.90;;;;;;;5.74;96.23;102291.47;5074568;28;20219;-77
2021/12/16 03:08:07;;;;;;;36.67;23.70;;;;;;;5.78;95.73;102294.19;5074809;28;20203;-78
2021/12/16 03:13:27;;;;;;;39.90;23.67;;;;;;;5.78;97.52;102260.50;5065911;28;20848;-77
2021/12/16 03:16:05;;;;;;;38.40;22.23;;;;;;;5.84;97.14;102259.81;5054310;28;20291;-77
2021/12/16 03:18:41;;;;;;;31.07;22.17;;;;;;;5.88;96.86;102263.38;5054168;28;20585;-77
2021/12/16 03:21:16;;;;;;;43.53;23.80;;;;;;;5.91;97.97;102258.31;5054155;28;20203;-77
2021/12/16 03:23:57;;;;;;;33.90;22.53;;;;;;;5.93;97.89;102238.50;5054127;28;20214;-77
2021/12/16 03:29:42;;;;;;;35.23;22.43;;;;;;;5.99;97.74;102222.28;5038893;28;20259;-77
2021/12/16 03:32:42;;;;;;;33.53;21.50;;;;;;;6.01;98.06;102223.19;5053568;28;20228;-77
2021/12/16 03:35:26;;;;;;;31.10;20.93;;;;;;;6.00;98.53;102208.47;5053951;28;20224;-77
2021/12/16 03:37:56;;;;;;;35.67;22.50;;;;;;;5.98;98.38;102205.81;5053594;28;20574;-77
2021/12/16 03:40:25;;;;;;;35.77;23.00;;;;;;;6.03;98.01;102211.16;5053201;28;20208;-77
2021/12/16 03:42:58;;;;;;;38.40;22.90;;;;;;;6.05;98.37;102218.13;5070986;28;20223;-77
2021/12/16 03:48:19;;;;;;;32.53;20.87;;;;;;;6.06;98.48;102219.00;5073806;28;20207;-77
2021/12/16 03:50:45;;;;;;;42.23;24.83;;;;;;;6.12;98.68;102214.88;5073974;28;20196;-76
2021/12/16 03:53:14;;;;;;;28.60;19.97;;;;;;;6.16;98.77;102208.97;5073141;28;20253;-77
2021/12/16 03:55:40;;;;;;;36.37;22.97;;;;;;;6.12;99.06;102201.03;5073801;28;20211;-77
2021/12/16 03:58:08;;;;;;;37.93;23.27;;;;;;;6.15;98.36;102203.72;5073516;28;20228;-77
2021/12/16 04:00:41;;;;;;;30.27;21.27;;;;;;;6.18;99.30;102202.91;5073200;28;20233;-77
2021/12/16 04:03:08;;;;;;;36.57;21.60;;;;;;;6.12;98.68;102207.09;5073319;28;20393;-76
2021/12/16 04:05:35;;;;;;;32.23;21.30;;;;;;;6.18;99.03;102198.59;5072951;28;20675;-76
2021/12/16 04:08:02;;;;;;;36.80;23.23;;;;;;;6.13;99.30;102185.53;5065517;28;20212;-77
2021/12/16 04:10:34;;;;;;;36.20;21.30;;;;;;;6.22;99.59;102181.41;5073547;28;20204;-76
2021/12/16 04:13:03;;;;;;;38.77;23.27;;;;;;;6.27;99.95;102183.31;5073064;28;20223;-77
2021/12/16 04:15:32;;;;;;;42.83;23.77;;;;;;;6.22;99.57;102177.09;5073054;28;20210;-76
2021/12/16 04:17:59;;;;;;;29.80;21.60;;;;;;;6.29;99.29;102176.44;5073312;28;20272;-76
2021/12/16 04:20:26;;;;;;;52.53;27.27;;;;;;;6.29;100.00;102183.34;5072755;28;20216;-77
2021/12/16 04:22:53;;;;;;;42.43;24.10;;;;;;;6.36;100.00;102173.19;5072779;28;20609;-77
2021/12/16 04:25:22;;;;;;;38.77;23.43;;;;;;;6.35;100.00;102181.78;5072796;28;20213;-77
2021/12/16 04:27:53;;;;;;;43.80;24.17;;;;;;;6.37;99.78;102176.66;5073189;28;20199;-76
2021/12/16 04:30:21;;;;;;;50.03;26.00;;;;;;;6.36;100.00;102178.38;5072790;28;20220;-77
2021/12/16 04:32:49;;;;;;;44.73;24.70;;;;;;;6.41;99.83;102185.41;5072502;28;20227;-77
2021/12/16 04:35:16;;;;;;;42.30;26.13;;;;;;;6.46;99.53;102182.09;5072792;28;20254;-77
2021/12/16 04:37:43;;;;;;;45.43;25.70;;;;;;;6.53;100.00;102190.91;5072740;28;20775;-77
2021/12/16 04:40:12;;;;;;;51.87;28.20;;;;;;;6.50;99.44;102189.13;5072792;28;20622;-77
2021/12/16 04:42:40;;;;;;;50.40;26.37;;;;;;;6.59;99.96;102191.06;5072561;28;20228;-76
2021/12/16 04:45:10;;;;;;;45.17;25.63;;;;;;;6.54;100.00;102192.63;5072551;28;20214;-76
2021/12/16 04:47:39;;;;;;;56.13;28.40;;;;;;;6.60;100.00;102198.03;5072945;28;20193;-77
2021/12/16 04:50:10;;;;;;;50.60;28.80;;;;;;;6.63;100.00;102195.47;5072520;28;20262;-77
2021/12/16 04:52:37;;;;;;;60.83;29.27;;;;;;;6.62;100.00;102209.31;5072345;28;20285;-76
2021/12/16 04:55:07;;;;;;;56.20;28.47;;;;;;;6.61;100.00;102207.53;5072454;28;20610;-76
2021/12/16 04:57:33;;;;;;;56.33;29.47;;;;;;;6.60;100.00;102195.41;5072126;28;20277;-76
2021/12/16 05:00:00;;;;;;;58.33;29.30;;;;;;;6.66;100.00;102199.88;5072010;28;20682;-76
2021/12/16 05:02:28;;;;;;;56.00;29.77;;;;;;;6.68;100.00;102201.69;5071995;28;20285;-77
2021/12/16 05:04:54;;;;;;;57.70;30.30;;;;;;;6.67;100.00;102194.72;5072363;28;20211;-76
2021/12/16 05:07:22;;;;;;;46.83;27.13;;;;;;;6.75;100.00;102211.34;5072141;28;20618;-76
2021/12/16 05:12:46;;;;;;;53.87;28.10;;;;;;;6.85;100.00;102209.00;5031119;28;20955;-77
2021/12/16 05:15:15;;;;;;;63.90;30.67;;;;;;;6.81;100.00;102207.19;5071852;28;20223;-76
2021/12/16 05:17:44;;;;;;;54.17;29.27;;;;;;;6.82;100.00;102204.63;5072225;28;20227;-76
2021/12/16 05:20:15;;;;;;;59.43;30.67;;;;;;;6.81;100.00;102199.38;5071838;28;20700;-76
2021/12/16 05:25:44;;;;;;;68.37;32.50;;;;;;;6.81;100.00;102179.50;5071493;28;20186;-77
2021/12/16 05:28:11;;;;;;;69.33;32.83;;;;;;;6.84;100.00;102164.00;5071699;22;20349;-79
2021/12/16 05:30:38;;;;;;;69.77;33.80;;;;;;;6.86;100.00;102157.13;5030498;28;20583;-78
2021/12/16 05:33:05;;;;;;;76.23;35.80;;;;;;;6.83;100.00;102138.00;5029751;28;20208;-78
2021/12/16 05:35:33;;;;;;;83.07;36.43;;;;;;;6.87;100.00;102126.84;5031410;28;20203;-77
2021/12/16 05:38:01;;;;;;;73.33;35.87;;;;;;;6.90;100.00;102119.16;5037878;28;20232;-77
2021/12/16 05:40:29;;;;;;;75.20;36.33;;;;;;;6.94;100.00;102123.56;5051756;28;20262;-76
2021/12/16 05:42:58;;;;;;;82.10;37.77;;;;;;;6.94;100.00;102114.06;5051496;28;20263;-77
2021/12/16 05:45:26;;;;;;;82.77;35.97;;;;;;;6.99;100.00;102119.34;5051838;28;20212;-78
2021/12/16 05:47:54;;;;;;;85.43;36.63;;;;;;;7.02;100.00;102129.81;5051291;28;20609;-78
2021/12/16 05:50:21;;;;;;;78.30;36.17;;;;;;;7.01;100.00;102129.78;5051623;28;20212;-77
2021/12/16 05:52:47;;;;;;;83.87;37.20;;;;;;;7.00;100.00;102128.91;5051380;28;20262;-78
2021/12/16 05:55:17;;;;;;;84.40;36.10;;;;;;;7.02;100.00;102137.59;5051694;28;20579;-78
2021/12/16 05:57:45;;;;;;;80.63;36.17;;;;;;;7.02;100.00;102129.81;5051501;28;20250;-78
2021/12/16 06:00:17;;;;;;;80.07;35.77;;;;;;;7.04;100.00;102145.44;5051302;28;20675;-78
2021/12/16 06:02:44;;;;;;;86.07;38.03;;;;;;;7.00;100.00;102151.38;5050258;28;20212;-78
2021/12/16 06:05:10;;;;;;;85.50;35.67;;;;;;;6.97;100.00;102142.66;5051298;28;20249;-78
2021/12/16 06:07:37;;;;;;;98.80;37.17;;;;;;;6.90;100.00;102119.16;5051496;28;20220;-77
2021/12/16 06:10:05;;;;;;;102.37;38.67;;;;;;;6.93;100.00;102117.47;5051605;28;20585;-77
2021/12/16 06:12:33;;;;;;;100.53;36.87;;;;;;;6.92;100.00;102107.09;5050993;28;20219;-77
2021/12/16 06:15:15;;;;;;;97.80;37.63;;;;;;;6.90;100.00;102107.06;5051291;28;20706;-76
2021/12/16 06:28:39;;;;;;;105.03;38.43;;;;;;;6.92;100.00;102102.75;5050784;28;20266;-78
2021/12/16 06:31:06;;;;;;;103.57;35.60;;;;;;;7.00;100.00;102096.84;5051307;28;20232;-78
2021/12/16 06:33:32;;;;;;;112.23;38.77;;;;;;;6.99;100.00;102108.09;5050294;28;20227;-77
2021/12/16 06:35:59;;;;;;;102.47;38.13;;;;;;;6.98;100.00;102112.41;5050938;28;20598;-78
2021/12/16 06:38:25;;;;;;;99.93;35.70;;;;;;;7.02;100.00;102123.75;5051198;28;20278;-77
2021/12/16 06:40:53;;;;;;;104.17;36.77;;;;;;;6.99;100.00;102126.25;5050905;28;20258;-76
2021/12/16 06:43:21;;;;;;;98.80;36.97;;;;;;;6.94;100.00;102127.03;5051081;28;20209;-77
2021/12/16 06:45:51;;;;;;;98.63;35.37;;;;;;;6.97;100.00;102141.81;5051182;28;20204;-77
2021/12/16 06:48:22;;;;;;;95.90;37.37;;;;;;;6.99;100.00;102142.72;5050925;28;20225;-78
2021/12/16 06:50:53;;;;;;;97.53;36.90;;;;;;;6.97;100.00;102145.25;5051255;28;20193;-77
2021/12/16 06:53:26;;;;;;;96.57;35.40;;;;;;;7.01;100.00;102138.44;5050285;28;20472;-78
2021/12/16 06:56:01;;;;;;;98.67;36.97;;;;;;;7.02;100.00;102134.16;5050741;28;20698;-78
2021/12/16 06:58:33;;;;;;;94.40;35.77;;;;;;;7.04;100.00;102142.84;5051054;28;20753;-77
2021/12/16 07:01:13;;;;;;;90.00;36.33;;;;;;;7.05;100.00;102142.84;5050659;28;20213;-77
2021/12/16 07:03:47;;;;;;;101.57;36.53;;;;;;;7.07;100.00;102156.75;5050384;28;20199;-78
2021/12/16 07:06:15;;;;;;;92.07;36.87;;;;;;;7.13;100.00;102163.81;5050901;28;20207;-78
2021/12/16 07:08:41;;;;;;;95.90;36.47;;;;;;;7.08;100.00;102163.72;5050873;28;20291;-78
2021/12/16 07:11:08;;;;;;;83.73;35.80;;;;;;;7.05;100.00;102166.22;5050421;28;20208;-78
2021/12/16 07:13:40;;;;;;;97.10;35.93;;;;;;;7.06;100.00;102170.59;5050487;28;20350;-78
2021/12/16 07:16:08;;;;;;;92.40;35.47;;;;;;;7.10;100.00;102176.75;5051996;28;20223;-77
2021/12/16 07:18:35;;;;;;;94.00;34.97;;;;;;;7.13;100.00;102176.78;5052484;28;20273;-79
2021/12/16 07:21:02;;;;;;;84.53;33.50;;;;;;;7.15;100.00;102172.50;5052942;28;20238;-78
2021/12/16 07:23:28;;;;;;;87.50;34.23;;;;;;;7.16;100.00;102175.16;5050584;28;20205;-77
2021/12/16 07:25:55;;;;;;;81.90;32.23;;;;;;;7.18;100.00;102169.13;5053508;28;20249;-77
2021/12/16 07:28:21;;;;;;;86.93;33.40;;;;;;;7.22;100.00;102176.16;5052322;28;20224;-78
2021/12/16 07:30:48;;;;;;;69.93;30.57;;;;;;;7.29;100.00;102176.28;5050381;28;20592;-77
2021/12/16 07:33:17;;;;;;;75.50;31.23;;;;;;;7.38;100.00;102182.56;5050546;28;20205;-77
2021/12/16 07:35:45;;;;;;;65.67;29.77;;;;;;;7.45;100.00;102187.94;5050846;28;20215;-78
2021/12/16 07:38:12;;;;;;;68.50;29.70;;;;;;;7.38;100.00;102188.63;5052901;28;20221;-77
2021/12/16 07:40:41;;;;;;;73.03;30.80;;;;;;;7.33;100.00;102191.13;5053120;28;20194;-76
2021/12/16 07:43:23;;;;;;;71.43;31.37;;;;;;;7.38;100.00;102193.81;5052614;28;20201;-78
2021/12/16 07:45:51;;;;;;;63.27;29.57;;;;;;;7.40;100.00;102209.44;5048172;28;20471;-78
2021/12/16 07:48:20;;;;;;;65.40;27.80;;;;;;;7.46;100.00;102207.84;5052423;28;20224;-77
2021/12/16 07:50:50;;;;;;;62.83;28.37;;;;;;;7.41;100.00;102230.25;5052676;28;20203;-76
2021/12/16 07:53:16;;;;;;;60.10;27.33;;;;;;;7.39;100.00;102229.34;5052469;28;20205;-77
2021/12/16 07:55:43;;;;;;;59.10;27.07;;;;;;;7.40;100.00;102228.50;5052247;28;20253;-78
2021/12/16 07:58:11;;;;;;;58.77;28.03;;;;;;;7.36;100.00;102240.53;5041354;28;20229;-77
2021/12/16 08:00:38;;;;;;;59.77;28.07;;;;;;;7.42;100.00;102244.13;5046789;28;20250;-77
2021/12/16 08:03:09;;;;;;;59.40;28.07;;;;;;;7.41;100.00;102253.63;5048744;28;20209;-79
2021/12/16 08:05:43;;;;;;;60.97;28.37;;;;;;;7.41;100.00;102261.41;5046579;28;20565;-77
2021/12/16 08:08:09;;;;;;;63.27;27.53;;;;;;;7.46;100.00;102261.56;5049625;28;20295;-78
2021/12/16 08:10:37;;;;;;;54.17;25.97;;;;;;;7.53;100.00;102258.22;5052171;28;20227;-78
2021/12/16 08:13:04;;;;;;;56.70;26.77;;;;;;;7.67;100.00;102262.03;5052173;28;20200;-78
2021/12/16 08:15:30;;;;;;;50.53;25.87;;;;;;;7.67;100.00;102277.66;5045846;28;20206;-77
2021/12/16 08:17:58;;;;;;;57.03;27.43;;;;;;;7.62;100.00;102286.16;5051370;28;20231;-78
2021/12/16 08:20:24;;;;;;;53.27;26.60;;;;;;;7.63;100.00;102301.81;5051764;28;20212;-77
2021/12/16 08:22:55;;;;;;;56.90;26.97;;;;;;;7.60;100.00;102300.84;5051450;28;20266;-78
2021/12/16 08:25:23;;;;;;;51.70;26.60;;;;;;;7.63;100.00;102304.41;5052380;28;20632;-78
2021/12/16 08:27:52;;;;;;;57.87;27.87;;;;;;;7.66;100.00;102311.38;5051357;28;20293;-78
2021/12/16 08:30:21;;;;;;;56.97;27.33;;;;;;;7.58;100.00;102316.41;5052920;28;20220;-77
2021/12/16 08:32:47;;;;;;;60.37;28.73;;;;;;;7.64;100.00;102315.69;5049960;28;20201;-79
2021/12/16 08:35:14;;;;;;;58.47;26.77;;;;;;;7.59;100.00;102309.47;5045336;28;20208;-79
2021/12/16 08:37:41;;;;;;;56.53;26.93;;;;;;;7.62;100.00;102309.56;5051184;28;20251;-77
2021/12/16 08:40:12;;;;;;;72.33;30.10;;;;;;;7.62;100.00;102310.44;5051296;28;20628;-78
2021/12/16 08:42:39;;;;;;;57.37;28.70;;;;;;;7.65;100.00;102307.03;5049332;28;20242;-78
2021/12/16 08:45:09;;;;;;;59.77;28.60;;;;;;;7.67;100.00;102290.63;5051862;28;20251;-78
2021/12/16 08:47:36;;;;;;;59.10;27.87;;;;;;;7.71;100.00;102291.56;5051543;28;20197;-76
2021/12/16 08:50:05;;;;;;;62.13;27.73;;;;;;;7.74;100.00;102295.13;5051681;28;20267;-77
2021/12/16 08:52:31;;;;;;;67.50;30.10;;;;;;;7.79;100.00;102309.94;5050514;28;20258;-76
2021/12/16 08:54:58;;;;;;;61.23;28.57;;;;;;;7.81;100.00;102314.34;5050845;28;20691;-77
2021/12/16 08:57:27;;;;;;;60.10;28.03;;;;;;;7.81;100.00;102306.56;5051382;28;20291;-77
2021/12/16 08:59:53;;;;;;;61.43;27.57;;;;;;;7.81;100.00;102313.44;5051849;28;20246;-78
2021/12/16 09:02:22;;;;;;;67.20;29.87;;;;;;;7.86;100.00;102314.44;5046203;28;20208;-77
2021/12/16 09:04:49;;;;;;;64.50;28.83;;;;;;;7.85;100.00;102318.78;5044530;28;20736;-77
2021/12/16 09:07:16;;;;;;;59.80;26.67;;;;;;;7.97;100.00;102323.38;5050891;28;20212;-78
2021/12/16 09:09:44;;;;;;;53.57;28.60;;;;;;;8.00;100.00;102335.56;5052110;28;20315;-77
2021/12/16 09:12:26;;;;;;;65.70;29.30;;;;;;;8.03;100.00;102346.03;5051443;28;20202;-78
2021/12/16 09:14:54;;;;;;;48.77;28.20;;;;;;;7.91;100.00;102365.72;5050827;28;20202;-76
2021/12/16 09:17:20;;;;;;;62.90;28.93;;;;;;;7.94;100.00;102365.75;5049213;28;20200;-78
2021/12/16 09:19:49;;;;;;;62.67;29.03;;;;;;;8.00;100.00;102369.34;5051597;28;20592;-78
2021/12/16 09:22:17;;;;;;;73.67;29.93;;;;;;;7.85;100.00;102382.88;5051227;28;20204;-78
2021/12/16 09:24:44;;;;;;;76.70;37.75;;;;;;;7.84;100.00;102376.78;5050979;28;21026;-77
2021/12/16 09:27:11;;;;;;;73.68;39.50;;;;;;;8.01;100.00;102376.31;5050227;28;20432;-77
2021/12/16 09:29:38;;;;;;;66.03;32.77;;;;;;;8.00;100.00;102374.56;5050479;28;20727;-77
2021/12/16 09:32:07;;;;;;;72.68;35.60;;;;;;;7.97;100.00;102380.59;5050939;28;20435;-78
2021/12/16 09:34:34;;;;;;;65.80;31.90;;;;;;;7.89;100.00;102388.19;5052156;28;20203;-78
2021/12/16 09:37:02;;;;;;;69.00;31.13;;;;;;;7.96;100.00;102384.88;5048448;28;20200;-78
2021/12/16 09:39:29;;;;;;;71.30;31.23;;;;;;;7.90;100.00;102387.34;5051656;28;20225;-79
2021/12/16 09:41:57;;;;;;;72.30;32.27;;;;;;;7.84;100.00;102370.72;5050320;28;20307;-78
2021/12/16 09:44:26;;;;;;;72.80;30.97;;;;;;;7.78;100.00;102365.38;5051775;28;20205;-78
2021/12/16 09:46:58;;;;;;;79.67;32.43;;;;;;;7.83;100.00;102362.06;5051605;28;20208;-78
2021/12/16 09:49:26;;;;;;;72.37;30.63;;;;;;;7.95;100.00;102359.72;5049329;28;20777;-76
2021/12/16 09:51:55;;;;;;;76.03;30.03;;;;;;;8.05;100.00;102371.22;5056238;28;20197;-77
2021/12/16 09:54:25;;;;;;;71.67;30.00;;;;;;;7.91;100.00;102370.91;5050787;28;20251;-76
2021/12/16 09:56:53;;;;;;;89.47;36.97;;;;;;;7.81;100.00;102368.94;5054699;28;20993;-77
2021/12/16 09:59:21;;;;;;;84.70;33.53;;;;;;;7.78;100.00;102360.19;5051347;28;20224;-77
2021/12/16 10:01:50;;;;;;;80.77;31.80;;;;;;;7.82;100.00;102349.88;5051072;28;20197;-77
2021/12/16 10:04:21;;;;;;;86.60;34.60;;;;;;;7.79;100.00;102352.44;5048059;28;20225;-77
2021/12/16 10:06:52;;;;;;;88.07;32.97;;;;;;;7.80;100.00;102359.38;5047792;28;20193;-78
2021/12/16 10:09:19;;;;;;;99.37;38.40;;;;;;;7.84;100.00;102357.72;5051610;28;20217;-78
2021/12/16 10:11:49;;;;;;;99.63;36.70;;;;;;;7.82;100.00;102357.69;5052288;28;20252;-79
2021/12/16 10:14:30;;;;;;;102.97;37.90;;;;;;;7.88;100.00;102359.56;5052246;28;20289;-78
2021/12/16 10:19:44;;;;;;;111.80;37.03;;;;;;;8.07;100.00;102358.25;5049218;28;20223;-78
2021/12/16 10:22:27;;;;;;;102.27;38.70;;;;;;;8.13;100.00;102364.47;5051968;28;20204;-78
2021/12/16 10:24:57;;;;;;;93.60;36.60;;;;;;;8.09;100.00;102378.25;5051165;28;20196;-78
2021/12/16 10:27:26;;;;;;;106.90;39.07;;;;;;;8.14;100.00;102380.94;5048767;28;20205;-77
2021/12/16 10:29:55;;;;;;;102.43;38.53;;;;;;;8.27;100.00;102387.31;5052478;28;20198;-78
2021/12/16 10:32:41;;;;;;;106.33;39.03;;;;;;;8.16;100.00;102376.66;5048963;28;20659;-78
2021/12/16 10:35:11;;;;;;;112.13;38.80;;;;;;;8.14;100.00;102386.16;5048398;28;20568;-79
2021/12/16 10:37:42;;;;;;;105.53;38.23;;;;;;;8.19;100.00;102383.66;5051291;28;20270;-78
2021/12/16 10:40:29;;;;;;;110.10;37.33;;;;;;;8.22;100.00;102383.72;5052226;28;20278;-78
2021/12/16 10:42:57;;;;;;;105.13;37.73;;;;;;;8.26;100.00;102391.63;5051119;28;20193;-78
2021/12/16 10:45:32;;;;;;;105.27;38.73;;;;;;;8.10;100.00;102397.31;5051942;28;20605;-79
2021/12/16 10:48:11;;;;;;;93.70;38.00;;;;;;;8.11;100.00;102389.56;5051286;28;20224;-79
2021/12/16 10:50:59;;;;;;;98.40;37.47;;;;;;;7.99;100.00;102386.69;5054444;28;20201;-78
2021/12/16 10:54:06;;;;;;;100.87;37.93;;;;;;;8.01;100.00;102395.41;5052056;28;20207;-76
2021/12/16 10:56:40;;;;;;;91.33;36.27;;;;;;;8.07;100.00;102379.06;4973136;28;20207;-77
2021/12/16 10:59:10;;;;;;;96.60;37.07;;;;;;;8.03;100.00;102383.31;4279284;28;10000793;-79
2021/12/16 11:01:56;;;;;;;100.00;38.37;;;;;;;7.86;100.00;102379.44;5014165;28;20736;-78
2021/12/16 11:04:28;;;;;;;112.13;38.53;;;;;;;7.91;100.00;102383.91;5051334;28;20230;-79
2021/12/16 11:06:57;;;;;;;113.00;39.97;;;;;;;7.94;100.00;102386.56;5051789;28;20205;-78
2021/12/16 11:09:39;;;;;;;100.43;39.53;;;;;;;7.88;100.00;102390.75;5052095;28;20223;-79
2021/12/16 11:12:12;;;;;;;114.17;40.13;;;;;;;7.88;100.00;102385.56;5050226;28;20224;-79
2021/12/16 11:14:41;;;;;;;115.43;38.80;;;;;;;7.82;100.00;102394.09;5052023;28;20204;-79
2021/12/16 11:17:10;;;;;;;117.13;41.67;;;;;;;7.82;100.00;102396.69;5052126;28;20204;-78
2021/12/16 11:19:43;;;;;;;109.33;41.27;;;;;;;7.92;100.00;102389.97;5051517;28;20271;-80
2021/12/16 11:22:11;;;;;;;108.37;40.10;;;;;;;7.82;100.00;102382.81;5051990;28;20255;-78
2021/12/16 11:24:39;;;;;;;110.13;39.47;;;;;;;7.85;100.00;102378.56;5051480;28;20222;-79
2021/12/16 11:27:20;;;;;;;115.30;40.30;;;;;;;7.86;100.00;102379.44;5051918;28;20559;-78
2021/12/16 11:29:47;;;;;;;95.30;37.37;;;;;;;7.90;100.00;102389.06;5049387;28;20200;-78
2021/12/16 11:32:35;;;;;;;95.67;37.43;;;;;;;7.95;100.00;102390.94;5051556;28;20266;-77
2021/12/16 11:35:01;;;;;;;98.60;38.63;;;;;;;7.98;100.00;102399.66;5037361;28;20810;-78
2021/12/16 11:37:27;;;;;;;102.53;38.00;;;;;;;8.04;100.00;102403.25;5052028;28;20220;-78
2021/12/16 11:39:55;;;;;;;83.93;34.37;;;;;;;8.06;100.00;102411.09;5050847;28;20232;-79
2021/12/16 11:42:28;;;;;;;66.90;29.83;;;;;;;8.07;100.00;102431.09;5047678;28;20737;-78
2021/12/16 11:44:57;;;;;;;72.30;30.53;;;;;;;8.12;100.00;102438.13;5050582;28;20209;-77
2021/12/16 11:47:25;;;;;;;70.67;29.90;;;;;;;8.14;100.00;102436.44;5051559;28;20209;-77
2021/12/16 11:49:54;;;;;;;59.57;27.70;;;;;;;8.11;100.00;102444.19;5051029;28;20186;-78
2021/12/16 11:52:23;;;;;;;57.77;27.13;;;;;;;8.12;100.00;102460.66;5048957;28;20208;-79
2021/12/16 11:54:53;;;;;;;51.37;24.77;;;;;;;8.08;100.00;102470.13;5051317;28;20641;-79
2021/12/16 11:57:24;;;;;;;61.30;27.03;;;;;;;8.08;100.00;102474.44;5045066;28;20201;-77
2021/12/16 11:59:54;;;;;;;62.77;27.43;;;;;;;8.06;100.00;102473.53;5051062;28;20224;-79
2021/12/16 12:02:31;;;;;;;60.03;25.07;;;;;;;8.14;100.00;102487.59;5052331;28;20305;-80
2021/12/16 12:05:16;;;;;;;54.83;25.27;;;;;;;8.15;100.00;102478.97;5039344;28;20668;-77
2021/12/16 12:07:44;;;;;;;49.17;24.27;;;;;;;8.13;100.00;102475.44;5042781;28;20580;-78
2021/12/16 12:10:11;;;;;;;57.23;26.83;;;;;;;8.07;100.00;102475.31;5041718;28;20256;-79
2021/12/16 12:12:43;;;;;;;71.13;31.03;;;;;;;8.08;100.00;102470.13;5043579;28;20228;-80
2021/12/16 12:15:12;;;;;;;58.07;25.87;;;;;;;8.11;100.00;102471.94;5050249;28;20248;-78
2021/12/16 12:17:48;;;;;;;50.20;22.97;;;;;;;8.10;100.00;102480.56;5052018;28;20627;-80
2021/12/16 12:20:14;;;;;;;40.40;20.97;;;;;;;8.08;100.00;102485.72;5051878;28;20223;-79
2021/12/16 12:22:41;;;;;;;41.03;21.13;;;;;;;8.18;100.00;102484.22;5052031;28;20957;-79
2021/12/16 12:25:07;;;;;;;33.33;19.20;;;;;;;8.16;100.00;102483.31;5051897;28;20255;-79
2021/12/16 12:27:34;;;;;;;31.87;19.17;;;;;;;8.17;100.00;102482.47;5050689;28;20447;-78
2021/12/16 12:30:07;;;;;;;29.53;17.47;;;;;;;8.21;100.00;102492.13;5051726;28;20764;-79
2021/12/16 12:32:37;;;;;;;23.97;15.83;;;;;;;8.18;100.00;102506.75;5052648;28;20204;-79
2021/12/16 12:35:07;;;;;;;18.20;14.10;;;;;;;8.21;100.00;102502.53;5051668;28;20216;-78
2021/12/16 12:37:36;;;;;;;23.57;14.33;;;;;;;8.27;100.00;102515.69;5051363;28;20264;-78
2021/12/16 12:40:09;;;;;;;20.17;12.30;;;;;;;8.36;100.00;102517.59;5051049;28;20286;-79
2021/12/16 12:42:36;;;;;;;20.33;14.13;;;;;;;8.29;100.00;102533.94;5051834;28;20212;-79
2021/12/16 12:45:06;;;;;;;15.60;13.33;;;;;;;8.43;100.00;102540.38;5051871;28;20208;-79
2021/12/16 12:47:35;;;;;;;18.67;13.67;;;;;;;8.32;100.00;102545.31;5051622;28;20215;-79
2021/12/16 12:50:11;;;;;;;16.37;10.83;;;;;;;8.25;100.00;102545.97;5051263;28;20205;-79
2021/12/16 12:52:39;;;;;;;13.90;10.67;;;;;;;8.32;100.00;102573.03;5051805;28;20239;-79
2021/12/16 12:55:10;;;;;;;15.13;12.77;;;;;;;8.35;100.00;102573.97;5051799;28;20213;-79
2021/12/16 12:57:41;;;;;;;15.07;11.97;;;;;;;8.40;100.00;102586.22;5051088;28;20213;-78
2021/12/16 13:00:23;;;;;;;14.83;13.10;;;;;;;8.40;100.00;102586.22;5056187;28;20233;-77
2021/12/16 13:02:57;;;;;;;15.87;13.33;;;;;;;8.43;100.00;102594.16;5062367;28;20212;-78
2021/12/16 13:05:24;;;;;;;15.07;12.20;;;;;;;8.46;100.00;102602.94;5061280;28;20243;-79
2021/12/16 13:07:55;;;;;;;15.20;12.43;;;;;;;8.51;100.00;102614.31;5052304;28;20228;-79